Time,TemperatureF,DewpointF,PressureIn,WindDirection,WindDirectionDegrees,WindSpeedMPH,WindSpeedGustMPH,Humidity,HourlyPrecipIn,Conditions,Clouds,dailyrainin,SoftwareType,DateUTC
2014-04-16 00:01:00,21.7,21.7,29.99,NNW,342,8.0,8.0,100,0.00,RA,SCT,0.00,WeatherDisplay:10.37,2014-04-16 04:01:00,
2014-04-16 00:06:00,21.6,21.6,29.99,NNE,22,16.1,16.1,100,0.00,RA,SCT,0.00,WeatherDisplay:10.37,2014-04-16 04:06:00,
2014-04-16 00:11:00,21.7,21.7,29.99,North,356,6.0,6.0,100,0.00,,SCT,0.00,WeatherDisplay:10.37,2014-04-16 04:11:00,
2014-04-16 00:16:00,21.7,21.7,30.00,North,0,11.5,11.5,100,0.00,,SCT,0.00,WeatherDisplay:10.37,2014-04-16 04:16:00,
2014-04-16 00:21:00,21.8,21.4,30.00,North,359,20.0,20.0,98,0.00,,SCT,0.00,WeatherDisplay:10.37,2014-04-16 04:21:00,
2014-04-16 00:26:00,21.8,21.8,30.01,North,357,12.7,12.7,100,0.00,,SCT,0.00,WeatherDisplay:10.37,2014-04-16 04:26:00,
2014-04-16 00:31:00,21.9,21.9,30.00,North,2,13.0,13.0,100,0.00,,SCT,0.00,WeatherDisplay:10.37,2014-04-16 04:31:00,
2014-04-16 00:36:00,21.8,20.6,30.00,NNW,348,11.5,11.5,95,0.00,,SCT,0.00,WeatherDisplay:10.37,2014-04-16 04:36:00,
2014-04-16 00:41:00,21.7,20.5,29.99,NNE,26,29.9,29.9,95,0.00,,SCT,0.00,WeatherDisplay:10.37,2014-04-16 04:41:00,
2014-04-16 00:46:00,21.6,20.4,29.98,North,1,11.5,11.5,95,0.00,,SCT,0.00,WeatherDisplay:10.37,2014-04-16 04:46:00,
2014-04-16 00:51:00,21.7,19.0,29.99,North,0,20.7,20.7,89,0.00,,SCT,0.00,WeatherDisplay:10.37,2014-04-16 04:51:00,
2014-04-16 00:56:00,21.6,19.2,30.00,North,4,26.5,26.5,90,0.00,,SCT,0.00,WeatherDisplay:10.37,2014-04-16 04:56:00,
2014-04-16 01:01:00,21.7,19.0,30.01,North,349,20.7,20.7,89,0.00,,SCT,0.00,WeatherDisplay:10.37,2014-04-16 05:01:00,
2014-04-16 01:06:00,21.6,18.6,30.00,NNW,334,19.6,19.6,88,0.00,,SCT,0.00,WeatherDisplay:10.37,2014-04-16 05:06:00,
2014-04-16 01:11:00,21.5,18.8,30.01,NNW,342,17.3,17.3,89,0.00,,SCT,0.00,WeatherDisplay:10.37,2014-04-16 05:11:00,
2014-04-16 01:16:00,21.5,17.5,30.00,North,1,19.6,19.6,84,0.00,,SCT,0.00,WeatherDisplay:10.37,2014-04-16 05:16:00,
2014-04-16 01:21:00,21.5,19.1,29.99,North,3,12.0,12.0,90,0.00,,SCT,0.00,WeatherDisplay:10.37,2014-04-16 05:21:00,
2014-04-16 01:26:00,21.3,17.3,30.01,NNW,340,26.5,26.5,84,0.00,,SCT,0.00,WeatherDisplay:10.37,2014-04-16 05:26:00,
2014-04-16 01:31:00,21.2,16.9,30.00,NNW,348,26.5,26.5,83,0.00,,SCT,0.00,WeatherDisplay:10.37,2014-04-16 05:31:00,
2014-04-16 01:36:00,21.2,17.7,30.02,North,8,19.6,19.6,86,0.00,,SCT,0.00,WeatherDisplay:10.37,2014-04-16 05:36:00,
2014-04-16 01:41:00,21.1,17.3,30.00,North,1,24.2,24.2,85,0.00,,SCT,0.00,WeatherDisplay:10.37,2014-04-16 05:41:00,
2014-04-16 01:46:00,20.9,17.7,30.02,NNE,14,11.5,11.5,87,0.00,,SCT,0.00,WeatherDisplay:10.37,2014-04-16 05:46:00,
2014-04-16 01:51:00,21.0,17.5,30.02,NNW,335,19.6,19.6,86,0.00,,SCT,0.00,WeatherDisplay:10.37,2014-04-16 05:51:00,
2014-04-16 01:56:00,20.9,17.1,30.03,NNW,327,12.7,12.7,85,0.00,,SCT,0.00,WeatherDisplay:10.37,2014-04-16 05:56:00,
2014-04-16 02:01:00,21.1,18.4,30.02,NNW,345,9.2,9.2,89,0.00,,SCT,0.00,WeatherDisplay:10.37,2014-04-16 06:01:00,
2014-04-16 02:06:00,21.0,18.6,30.01,North,0,6.9,6.9,90,0.00,,SCT,0.00,WeatherDisplay:10.37,2014-04-16 06:06:00,
2014-04-16 02:11:00,20.7,17.7,30.03,North,0,11.5,11.5,88,0.00,,SCT,0.00,WeatherDisplay:10.37,2014-04-16 06:11:00,
2014-04-16 02:16:00,20.7,16.9,30.03,North,350,16.1,16.1,85,0.00,,SCT,0.00,WeatherDisplay:10.37,2014-04-16 06:16:00,
2014-04-16 02:21:00,20.7,16.9,30.03,NNW,339,11.5,11.5,85,0.00,,SCT,0.00,WeatherDisplay:10.37,2014-04-16 06:21:00,
2014-04-16 02:26:00,20.4,16.1,30.05,WNW,302,15.0,15.0,83,0.00,,SCT,0.00,WeatherDisplay:10.37,2014-04-16 06:26:00,
2014-04-16 02:31:00,20.4,16.4,30.03,North,6,19.6,19.6,84,0.00,,SCT,0.00,WeatherDisplay:10.37,2014-04-16 06:31:00,
2014-04-16 02:36:00,20.2,15.6,30.03,NW,324,21.9,21.9,82,0.00,,SCT,0.00,WeatherDisplay:10.37,2014-04-16 06:36:00,
2014-04-16 02:41:00,20.1,15.8,30.04,North,359,15.0,15.0,83,0.00,,SCT,0.00,WeatherDisplay:10.37,2014-04-16 06:41:00,
2014-04-16 02:47:00,20.0,14.9,30.03,NNE,27,17.3,17.3,80,0.00,,SCT,0.00,WeatherDisplay:10.37,2014-04-16 06:47:00,
2014-04-16 02:51:00,19.7,15.4,30.02,North,1,18.4,18.4,83,0.00,,SCT,0.00,WeatherDisplay:10.37,2014-04-16 06:51:00,
2014-04-16 02:57:00,19.9,15.9,30.05,North,357,21.9,21.9,84,0.00,,SCT,0.00,WeatherDisplay:10.37,2014-04-16 06:57:00,
2014-04-16 03:02:00,19.8,15.0,30.05,North,352,19.6,19.6,81,0.00,,SCT,0.00,WeatherDisplay:10.37,2014-04-16 07:02:00,
2014-04-16 03:07:00,19.7,15.7,30.06,North,353,18.4,18.4,84,0.00,,SCT,0.00,WeatherDisplay:10.37,2014-04-16 07:07:00,
2014-04-16 03:12:00,19.6,15.9,30.05,North,358,15.0,15.0,85,0.00,,SCT,0.00,WeatherDisplay:10.37,2014-04-16 07:12:00,
2014-04-16 03:17:00,19.5,15.5,30.03,North,0,19.0,19.0,84,0.00,,SCT,0.00,WeatherDisplay:10.37,2014-04-16 07:17:00,
2014-04-16 03:22:00,19.2,14.6,30.03,NNW,347,12.7,12.7,82,0.00,,SCT,0.00,WeatherDisplay:10.37,2014-04-16 07:22:00,
2014-04-16 03:27:00,19.0,15.0,30.02,North,10,27.0,27.0,84,0.00,,SCT,0.00,WeatherDisplay:10.37,2014-04-16 07:27:00,
2014-04-16 03:32:00,18.7,13.6,30.04,NW,317,16.1,16.1,80,0.00,,SCT,0.00,WeatherDisplay:10.37,2014-04-16 07:32:00,
2014-04-16 03:37:00,18.8,13.4,30.05,NNW,338,28.8,28.8,79,0.00,,SCT,0.00,WeatherDisplay:10.37,2014-04-16 07:37:00,
2014-04-16 03:42:00,18.6,12.9,30.08,North,359,27.6,27.6,78,0.00,,SCT,0.00,WeatherDisplay:10.37,2014-04-16 07:42:00,
2014-04-16 03:47:00,18.5,14.0,30.10,North,2,20.0,20.0,82,0.00,,SCT,0.00,WeatherDisplay:10.37,2014-04-16 07:47:00,
2014-04-16 03:52:00,18.6,13.5,30.12,WNW,289,18.4,18.4,80,0.00,,SCT,0.00,WeatherDisplay:10.37,2014-04-16 07:52:00,
2014-04-16 03:57:00,18.5,13.1,30.12,NNE,32,12.0,12.0,79,0.00,,SCT,0.00,WeatherDisplay:10.37,2014-04-16 07:57:00,
2014-04-16 04:02:00,18.6,14.1,30.12,NE,37,9.2,9.2,82,0.00,,SCT,0.00,WeatherDisplay:10.37,2014-04-16 08:02:00,
2014-04-16 04:07:00,18.6,12.9,30.13,NW,325,19.6,19.6,78,0.00,,SCT,0.00,WeatherDisplay:10.37,2014-04-16 08:07:00,
2014-04-16 04:12:00,18.4,13.3,30.14,NNE,25,12.7,12.7,80,0.00,,SCT,0.00,WeatherDisplay:10.37,2014-04-16 08:12:00,
2014-04-16 04:17:00,18.3,12.9,30.15,North,0,11.5,11.5,79,0.00,,SCT,0.00,WeatherDisplay:10.37,2014-04-16 08:17:00,
2014-04-16 04:22:00,18.1,13.0,30.16,NNE,20,17.3,17.3,80,0.00,,SCT,0.00,WeatherDisplay:10.37,2014-04-16 08:22:00,
2014-04-16 04:27:00,18.2,12.2,30.15,NNW,343,10.4,10.4,77,0.00,,SCT,0.00,WeatherDisplay:10.37,2014-04-16 08:27:00,
2014-04-16 04:32:00,18.1,13.0,30.15,North,352,13.0,13.0,80,0.00,,SCT,0.00,WeatherDisplay:10.37,2014-04-16 08:32:00,
2014-04-16 04:37:00,17.8,11.8,30.15,North,7,16.1,16.1,77,0.00,,SCT,0.00,WeatherDisplay:10.37,2014-04-16 08:37:00,
2014-04-16 04:42:00,17.6,11.9,30.15,NNE,24,15.0,15.0,78,0.00,,SCT,0.00,WeatherDisplay:10.37,2014-04-16 08:42:00,
2014-04-16 04:47:00,17.4,12.0,30.16,NW,322,12.0,12.0,79,0.00,,SCT,0.00,WeatherDisplay:10.37,2014-04-16 08:47:00,
2014-04-16 04:52:00,17.5,11.8,30.16,North,359,11.5,11.5,78,0.00,,SCT,0.00,WeatherDisplay:10.37,2014-04-16 08:52:00,
2014-04-16 04:57:00,17.5,11.6,30.16,North,4,18.0,18.0,77,0.00,,SCT,0.00,WeatherDisplay:10.37,2014-04-16 08:57:00,
2014-04-16 05:02:00,17.3,12.5,30.16,North,2,12.7,12.7,81,0.00,,SCT,0.00,WeatherDisplay:10.37,2014-04-16 09:02:00,
2014-04-16 05:07:00,17.1,11.2,30.16,NNW,346,14.0,14.0,77,0.00,,SCT,0.00,WeatherDisplay:10.37,2014-04-16 09:07:00,
2014-04-16 05:12:00,17.1,11.2,30.16,North,350,14.0,14.0,77,0.00,,SCT,0.00,WeatherDisplay:10.37,2014-04-16 09:12:00,
2014-04-16 05:17:00,16.9,11.6,30.17,NNE,23,9.2,9.2,79,0.00,,SCT,0.00,WeatherDisplay:10.37,2014-04-16 09:17:00,
2014-04-16 05:22:00,17.0,11.1,30.17,NNW,341,11.5,11.5,77,0.00,,SCT,0.00,WeatherDisplay:10.37,2014-04-16 09:22:00,
2014-04-16 05:27:00,16.9,11.3,30.18,NNE,13,11.5,11.5,78,0.00,,SCT,0.00,WeatherDisplay:10.37,2014-04-16 09:27:00,
2014-04-16 05:32:00,16.7,10.8,30.18,NE,50,14.0,14.0,77,0.00,,SCT,0.00,WeatherDisplay:10.37,2014-04-16 09:32:00,
2014-04-16 05:37:00,16.8,11.5,30.18,WNW,283,17.3,17.3,79,0.00,,SCT,0.00,WeatherDisplay:10.37,2014-04-16 09:37:00,
2014-04-16 05:42:00,16.7,11.1,30.20,NNW,331,11.5,11.5,78,0.00,,SCT,0.00,WeatherDisplay:10.37,2014-04-16 09:42:00,
2014-04-16 05:47:00,16.7,11.1,30.20,North,11,11.5,11.5,78,0.00,,SCT,0.00,WeatherDisplay:10.37,2014-04-16 09:47:00,
2014-04-16 05:52:00,16.6,10.7,30.20,North,1,11.5,11.5,77,0.00,,SCT,0.00,WeatherDisplay:10.37,2014-04-16 09:52:00,
2014-04-16 05:57:00,16.7,11.1,30.20,NW,306,14.0,14.0,78,0.00,,SCT,0.00,WeatherDisplay:10.37,2014-04-16 09:57:00,
2014-04-16 06:02:00,16.7,11.6,30.21,North,0,13.8,13.8,80,0.00,,SCT,0.00,WeatherDisplay:10.37,2014-04-16 10:02:00,
2014-04-16 06:07:00,16.5,11.7,30.22,North,5,10.4,10.4,81,0.00,,SCT,0.00,WeatherDisplay:10.37,2014-04-16 10:07:00,
2014-04-16 06:12:00,16.6,11.5,30.23,NNW,331,19.6,19.6,80,0.00,,SCT,0.00,WeatherDisplay:10.37,2014-04-16 10:12:00,
2014-04-16 06:17:00,16.4,11.6,30.23,NW,323,11.5,11.5,81,0.00,,SCT,0.00,WeatherDisplay:10.37,2014-04-16 10:17:00,
2014-04-16 06:22:00,16.5,10.9,30.24,NW,320,16.0,16.0,78,0.00,,SCT,0.00,WeatherDisplay:10.37,2014-04-16 10:22:00,
2014-04-16 06:27:00,16.4,11.3,30.25,NE,38,19.6,19.6,80,0.00,,SCT,0.00,WeatherDisplay:10.37,2014-04-16 10:27:00,
2014-04-16 06:32:00,16.3,10.4,30.25,North,359,15.0,15.0,77,0.00,,SCT,0.00,WeatherDisplay:10.37,2014-04-16 10:32:00,
2014-04-16 06:37:00,16.3,10.7,30.26,North,357,12.7,12.7,78,0.00,,SCT,0.00,WeatherDisplay:10.37,2014-04-16 10:37:00,
2014-04-16 06:42:00,16.3,10.1,30.25,NNW,340,17.3,17.3,76,0.00,,SCT,0.00,WeatherDisplay:10.37,2014-04-16 10:42:00,
2014-04-16 06:47:00,16.3,10.4,30.26,North,0,11.5,11.5,77,0.00,,SCT,0.00,WeatherDisplay:10.37,2014-04-16 10:47:00,
2014-04-16 06:52:00,16.2,10.3,30.26,North,351,24.2,24.2,77,0.00,,SCT,0.00,WeatherDisplay:10.37,2014-04-16 10:52:00,
2014-04-16 06:57:00,16.2,9.4,30.27,North,3,15.0,15.0,74,0.00,,SCT,0.00,WeatherDisplay:10.37,2014-04-16 10:57:00,
2014-04-16 07:02:00,16.2,11.2,30.27,NW,309,12.0,12.0,80,0.00,,SCT,0.00,WeatherDisplay:10.37,2014-04-16 11:02:00,
2014-04-16 07:07:00,16.2,9.7,30.27,North,359,19.6,19.6,75,0.00,,SCT,0.00,WeatherDisplay:10.37,2014-04-16 11:07:00,
2014-04-16 07:12:00,16.2,9.1,30.28,NNW,343,16.1,16.1,73,0.00,,SCT,0.00,WeatherDisplay:10.37,2014-04-16 11:12:00,
2014-04-16 07:17:00,16.2,9.4,30.28,North,2,17.0,17.0,74,0.00,,SCT,0.00,WeatherDisplay:10.37,2014-04-16 11:17:00,
2014-04-16 07:22:00,16.1,9.3,30.28,North,359,16.0,16.0,74,0.00,,SCT,0.00,WeatherDisplay:10.37,2014-04-16 11:22:00,
2014-04-16 07:27:00,16.1,9.6,30.28,North,0,10.4,10.4,75,0.00,,SCT,0.00,WeatherDisplay:10.37,2014-04-16 11:27:00,
2014-04-16 07:32:00,16.2,9.7,30.29,North,7,16.1,16.1,75,0.00,,SCT,0.00,WeatherDisplay:10.37,2014-04-16 11:32:00,
2014-04-16 07:37:00,16.3,9.8,30.29,NNE,17,11.5,11.5,75,0.00,,SCT,0.00,WeatherDisplay:10.37,2014-04-16 11:37:00,
2014-04-16 07:42:00,16.4,10.2,30.28,North,7,12.7,12.7,76,0.00,,SCT,0.00,WeatherDisplay:10.37,2014-04-16 11:42:00,
2014-04-16 07:47:00,16.5,10.0,30.28,North,0,16.1,16.1,75,0.00,,SCT,0.00,WeatherDisplay:10.37,2014-04-16 11:47:00,
2014-04-16 07:52:00,16.6,10.4,30.29,ENE,60,13.0,13.0,76,0.00,,SCT,0.00,WeatherDisplay:10.37,2014-04-16 11:52:00,
2014-04-16 07:57:00,16.5,9.7,30.29,North,0,17.3,17.3,74,0.00,,SCT,0.00,WeatherDisplay:10.37,2014-04-16 11:57:00,
2014-04-16 08:02:00,16.7,9.6,30.30,North,0,17.3,17.3,73,0.00,,SCT,0.00,WeatherDisplay:10.37,2014-04-16 12:02:00,
2014-04-16 08:07:00,16.8,10.3,30.30,North,358,18.4,18.4,75,0.00,,SCT,0.00,WeatherDisplay:10.37,2014-04-16 12:07:00,
2014-04-16 08:12:00,17.0,9.6,30.31,North,0,11.5,11.5,72,0.00,,SCT,0.00,WeatherDisplay:10.37,2014-04-16 12:12:00,
2014-04-16 08:18:00,17.0,9.9,30.31,North,9,16.1,16.1,73,0.00,,SCT,0.00,WeatherDisplay:10.37,2014-04-16 12:18:00,
2014-04-16 08:23:00,17.0,9.6,30.32,NNE,26,13.8,13.8,72,0.00,,SCT,0.00,WeatherDisplay:10.37,2014-04-16 12:23:00,
2014-04-16 08:28:00,17.3,10.5,30.32,North,353,9.2,9.2,74,0.00,,SCT,0.00,WeatherDisplay:10.37,2014-04-16 12:28:00,